KOXV

Knoxville Municipal Airport

Knoxville, Iowa, USA
METAR KOXV 201055Z AUTO 34005KT 10SM BKN055 OVC070 M16/M16 A3032 RMK AO2
Observed Flight Rules
Jan-20 @ 10:55 UTC (6 minutes ago) Visual Flight Rules
Wind Visibility Clouds
340° at 5 knots 10 miles
  • Broken at 5,500' AGL
  • Overcast at 7,000' AGL
Temperatures Readings
Current -16°C / 3°F
Dewpoint -16°C / 3°F
Humidity 100%
Altimeter 30.32" Hg
Pressure 1026.72 hPa
Elevation 283
METAR KOXV 201055Z AUTO 34005KT 10SM BKN055 OVC070 M16/M16 A3032 RMK AO2
Observed Flight Rules
Jan-20 @ 10:55 UTC
(6 minutes ago)
VFR
Wind Visibility
340° at 5 knots 10 miles
Clouds
  • Broken at 5,500' AGL
  • Overcast at 7,000' AGL
Temperature Dewpoint
-16°C / 3°F -16°C / 3°F
Humidity Altimeter Pressure
100% 30.32" Hg 1026.72 hPa